Flight Track Log - Related Links

Times and Time Zones

All times are in EDT time to prevent confusion due to time zone crossing. See the N860BA flight status page for this flight to view local times or setup timezone preferences in your user account.

Time Position Orientation Groundspeed Altitude Reporting Facility
EDT Latitude Longitude Course Direction KTS MPH feet Rate Location/Type
Fri 11:57:13 AM 40.8833 -74.0500 346° North 166 191 1,400  Level New York TRACON
Fri 11:58:08 AM 40.9333 -74.0667 346° North 246 283 2,600 1,617 Climbing New York TRACON
Fri 11:59:08 AM 40.9333 -74.1500 270° West 267 307 4,500 2,496 Climbing New York TRACON
Fri 12:00:13 PM 40.9167 -74.2667 259° West 303 349 7,800 3,184 Climbing New York TRACON
Fri 12:01:35 PM 40.9706 -74.3931 299° West 303 349 12,300 3,085 Climbing New York Center
Fri 12:02:35 PM 41.0161 -74.4753 306° West 303 349 15,100 1,881 Climbing New York Center
Fri 12:03:33 PM 41.0750 -74.5803 307° West 318 366 16,000 661 Climbing New York Center
Fri 12:04:33 PM 41.1358 -74.6967 305° West 352 405 16,400 645 Climbing New York Center
Fri 12:05:34 PM 41.1978 -74.8383 300° West 431 496 17,300 744 Climbing New York Center
Fri 12:06:34 PM 41.2558 -74.9658 301° West 452 520 17,900 900 Climbing New York Center
Fri 12:07:34 PM 41.3172 -75.1133 299° West 452 520 19,100 1,190 Climbing New York Center
Fri 12:08:35 PM 41.3806 -75.2583 300° West 452 520 20,300 1,240 Climbing New York Center
Fri 12:09:35 PM 41.4414 -75.4036 299° West 452 520 21,600 1,271 Climbing New York Center
Fri 12:10:33 PM 41.4978 -75.5572 296° West 452 520 22,800 1,210 Climbing New York Center
Fri 12:11:34 PM 41.5433 -75.7156 291° West 452 520 24,000 1,240 Climbing New York Center
Fri 12:12:34 PM 41.5886 -75.8769 291° West 458 527 25,300 1,240 Climbing New York Center
Fri 12:13:35 PM 41.6339 -76.0358 291° West 458 527 26,500 1,190 Climbing New York Center
Fri 12:14:35 PM 41.6789 -76.1922 291° West 458 527 27,700 1,220 Climbing New York Center
Fri 12:15:33 PM 41.7197 -76.3456 290° West 453 521 28,900 1,210 Climbing New York Center
Fri 12:16:34 PM 41.7622 -76.4994 290° West 453 521 30,100 1,091 Climbing New York Center
Fri 12:17:34 PM 41.8050 -76.6506 291° West 448 516 31,100 1,068 Climbing New York Center
Fri 12:18:32 PM 41.8472 -76.8044 290° West 443 510 32,200 982 Climbing New York Center
Fri 12:19:24 PM 41.8833 -76.9375 290° West 449 517 32,900 964 Climbing Cleveland Center
Fri 12:20:24 PM 41.9236 -77.0889 290° West 449 517 34,000 950 Climbing Cleveland Center
Fri 12:21:24 PM 41.9656 -77.2431 290° West 444 511 34,800 1,000 Climbing Cleveland Center
Fri 12:22:24 PM 42.0053 -77.3919 290° West 434 499 36,000 700 Climbing Cleveland Center
Fri 12:23:24 PM 42.0469 -77.5408 291° West 429 494 36,200  Climbing Cleveland Center
Fri 12:24:24 PM 42.0864 -77.6983 289° West 435 501 36,000 -100 Descending Cleveland Center
Fri 12:25:24 PM 42.1278 -77.8561 290° West 440 506 36,000  Level Cleveland Center
Fri 12:26:24 PM 42.1711 -78.0169 290° West 445 512 36,000  Level Cleveland Center
Fri 12:27:24 PM 42.2122 -78.1778 289° West 450 518 36,000  Level Cleveland Center
Fri 12:28:24 PM 42.2550 -78.3361 290° West 450 518 36,000  Level Cleveland Center
Fri 12:29:24 PM 42.2956 -78.5003 289° West 460 529 36,000  Level Cleveland Center
Fri 12:30:24 PM 42.3422 -78.6758 290° West 460 529 36,000  Level Cleveland Center
Fri 12:31:24 PM 42.3825 -78.8375 289° West 460 529 36,000  Level Cleveland Center
Fri 12:32:24 PM 42.4178 -78.9856 288° West 460 529 36,000  Level Cleveland Center
Fri 12:33:24 PM 42.4642 -79.1675 289° West 460 529 36,000  Level Cleveland Center
Fri 12:34:24 PM 42.4972 -79.3328 285° West 460 529 36,000  Level Cleveland Center
Fri 12:35:24 PM 42.5031 -79.5044 273° West 455 524 36,000  Level Cleveland Center
Fri 12:36:24 PM 42.5108 -79.6761 274° West 455 524 36,000  Level Cleveland Center
Fri 12:37:24 PM 42.5203 -79.8481 274° West 455 524 36,000 100 Level Cleveland Center
Fri 12:38:24 PM 42.5256 -80.0000 273° West 461 531 36,200 250 Climbing Cleveland Center
Fri 12:39:24 PM 42.5325 -80.1719 273° West 461 531 36,500 300 Climbing Cleveland Center
Fri 12:40:24 PM 42.5392 -80.3633 273° West 456 525 36,800 350 Climbing Cleveland Center
Fri 12:41:24 PM 42.5478 -80.5325 274° West 462 532 37,200 350 Climbing Cleveland Center
Fri 12:42:24 PM 42.5603 -80.6986 276° West 457 526 37,500 300 Climbing Cleveland Center
Fri 12:43:24 PM 42.5767 -80.8764 277° West 467 537 37,800 250 Climbing Cleveland Center
Fri 12:44:24 PM 42.5928 -81.0428 278° West 462 532 38,000 100 Climbing Cleveland Center
Fri 12:45:24 PM 42.6086 -81.2122 277° West 462 532 38,000  Level Cleveland Center
Fri 12:46:24 PM 42.6242 -81.3817 277° West 467 537 38,000  Level Cleveland Center
Fri 12:47:24 PM 42.6394 -81.5514 277° West 467 537 38,000  Level Cleveland Center
Fri 12:48:24 PM 42.6547 -81.7208 277° West 459 528 38,000  Level Cleveland Center
Fri 12:49:24 PM 42.6675 -81.8906 276° West 452 520 38,000  Level Cleveland Center
Fri 12:50:24 PM 42.6967 -82.0522 284° West 452 520 38,000  Level Cleveland Center
Fri 12:51:24 PM 42.7425 -82.2086 292° West 446 513 38,000  Level Cleveland Center
Fri 12:52:24 PM 42.7903 -82.3628 293° West 446 513 38,000  Level Cleveland Center
Fri 12:53:24 PM 42.8381 -82.5114 294° West 441 507 38,000  Level Cleveland Center
Fri 12:54:24 PM 42.8833 -82.6631 292° West 441 507 38,000  Level Cleveland Center
Fri 12:55:24 PM 42.9325 -82.8178 294° West 441 507 38,000  Level Cleveland Center
Fri 12:56:24 PM 42.9753 -82.9667 291° West 435 501 38,000  Level Cleveland Center
Fri 12:57:24 PM 43.0222 -83.1192 293° West 435 501 38,000  Level Cleveland Center
Fri 12:58:24 PM 43.0667 -83.2689 292° West 435 501 38,000  Level Cleveland Center
Fri 12:59:24 PM 43.1131 -83.4186 293° West 441 507 38,000  Level Cleveland Center
Fri 01:00:24 PM 43.1572 -83.5717 292° West 441 507 38,000  Level Cleveland Center
Fri 01:01:24 PM 43.2031 -83.7275 292° West 441 507 38,000  Level Cleveland Center
Fri 01:02:24 PM 43.2469 -83.8781 292° West 441 507 38,000  Level Cleveland Center
Fri 01:03:24 PM 43.2886 -84.0172 292° West 441 507 38,000  Level Cleveland Center
Fri 01:05:09 PM 43.3650 -84.2853 291° West 439 505 38,000  Level Minneapolis Center
Fri 01:06:11 PM 43.4103 -84.4417 292° West 441 507 38,000  Level Minneapolis Center
Fri 01:07:12 PM 43.4631 -84.6297 291° West 442 509 38,000  Level Minneapolis Center
Fri 01:08:14 PM 43.5081 -84.7869 292° West 444 511 38,000  Level Minneapolis Center
Fri 01:09:16 PM 43.5533 -84.9467 291° West 448 516 38,000  Level Minneapolis Center
Fri 01:10:17 PM 43.5983 -85.1042 292° West 446 513 38,000  Level Minneapolis Center
Fri 01:11:19 PM 43.6417 -85.2633 291° West 446 513 38,000  Level Minneapolis Center
Fri 01:12:21 PM 43.6856 -85.4214 291° West 446 513 38,000  Level Minneapolis Center
Fri 01:13:23 PM 43.7378 -85.6122 291° West 446 513 38,000  Level Minneapolis Center
Fri 01:14:24 PM 43.7817 -85.7717 291° West 446 513 38,000  Level Minneapolis Center
Fri 01:15:26 PM 43.8253 -85.9333 291° West 450 518 38,000  Level Minneapolis Center
Fri 01:16:28 PM 43.8675 -86.0936 290° West 448 516 38,000  Level Minneapolis Center
Fri 01:17:30 PM 43.9106 -86.2544 290° West 448 516 38,000  Level Minneapolis Center
Fri 01:18:32 PM 43.9533 -86.4167 290° West 450 518 38,000  Level Minneapolis Center
Fri 01:19:34 PM 44.0050 -86.6103 290° West 449 517 38,000  Level Minneapolis Center
Fri 01:20:35 PM 44.0472 -86.7714 290° West 445 512 38,000  Level Minneapolis Center
Fri 01:21:37 PM 44.0897 -86.9347 290° West 449 517 38,000  Level Minneapolis Center
Fri 01:22:39 PM 44.1317 -87.0989 290° West 452 520 38,000  Level Minneapolis Center
Fri 01:23:41 PM 44.1761 -87.2767 289° West 449 517 38,000  Level Minneapolis Center
Fri 01:24:43 PM 44.2178 -87.4408 290° West 449 517 38,000  Level Minneapolis Center
Fri 01:25:44 PM 44.2594 -87.6061 289° West 452 520 38,000  Level Minneapolis Center
Fri 01:26:46 PM 44.3008 -87.7703 289° West 451 519 38,000  Level Minneapolis Center
Fri 01:27:48 PM 44.3489 -87.9619 289° West 450 518 38,000  Level Minneapolis Center
Fri 01:28:50 PM 44.3889 -88.1250 289° West 445 512 38,000  Level Minneapolis Center
Fri 01:29:52 PM 44.4289 -88.2908 289° West 450 518 38,000  Level Minneapolis Center
Fri 01:30:54 PM 44.4669 -88.4528 288° West 443 510 38,000  Level Minneapolis Center
Fri 01:31:56 PM 44.5072 -88.6186 289° West 450 518 38,000  Level Minneapolis Center
Fri 01:32:58 PM 44.5531 -88.8117 288° West 449 517 38,000  Level Minneapolis Center
Fri 01:34:00 PM 44.5931 -88.9772 289° West 449 517 38,000  Level Minneapolis Center
Fri 01:35:02 PM 44.6314 -89.1453 288° West 451 519 38,000  Level Minneapolis Center
Fri 01:36:03 PM 44.6711 -89.3111 289° West 450 518 38,000  Level Minneapolis Center
Fri 01:37:05 PM 44.7086 -89.4769 288° West 447 514 38,000  Level Minneapolis Center
Fri 01:38:07 PM 44.7533 -89.6708 288° West 447 514 38,000  Level Minneapolis Center
Fri 01:39:09 PM 44.7917 -89.8400 288° West 452 520 38,000  Level Minneapolis Center
Fri 01:40:11 PM 44.8311 -90.0167 288° West 448 516 38,000  Level Minneapolis Center
Fri 01:41:13 PM 44.8683 -90.1856 287° West 449 517 38,000  Level Minneapolis Center
Fri 01:42:15 PM 44.9058 -90.3528 288° West 448 516 38,000  Level Minneapolis Center
Fri 01:43:17 PM 44.9431 -90.5200 288° West 446 513 38,000  Level Minneapolis Center
Fri 01:44:19 PM 44.9792 -90.6875 287° West 445 512 38,000  Level Minneapolis Center
Fri 01:45:21 PM 45.0150 -90.8539 287° West 442 509 38,000  Level Minneapolis Center
Fri 01:46:23 PM 45.0564 -91.0450 287° West 439 505 38,000  Level Minneapolis Center
Fri 01:47:25 PM 45.0908 -91.2097 287° West 440 506 38,000  Level Minneapolis Center
Fri 01:48:27 PM 45.1258 -91.3744 287° West 440 506 38,000  Level Minneapolis Center
Fri 01:49:00 PM 45.1448 -91.4670 287° West  Level FlightAware Approximate
Fri 01:49:29 PM 45.1606 -91.5389 287° West 439 505 38,000  Level Minneapolis Center
Fri 01:50:30 PM 45.1964 -91.7047 287° West 442 509 38,000  Level Minneapolis Center
Fri 01:51:32 PM 45.2306 -91.8694 286° West 440 506 38,000  Level Minneapolis Center
Fri 01:52:34 PM 45.2717 -92.0672 287° West 438 504 38,000  Level Minneapolis Center
Fri 01:53:36 PM 45.3042 -92.2317 286° West 438 504 38,000  Level Minneapolis Center
Fri 01:54:38 PM 45.3372 -92.3972 286° West 439 505 38,000  Level Minneapolis Center
Fri 01:55:40 PM 45.3706 -92.5614 286° West 436 502 38,000  Level Minneapolis Center
Fri 01:56:42 PM 45.4039 -92.7272 286° West 439 505 38,000  Level Minneapolis Center
Fri 01:57:44 PM 45.4428 -92.9272 286° West 440 506 38,000  Level Minneapolis Center
Fri 01:58:46 PM 45.4753 -93.0950 285° West 443 510 38,000  Level Minneapolis Center
Fri 01:59:48 PM 45.5069 -93.2633 285° West 445 512 38,000  Level Minneapolis Center
Fri 02:00:50 PM 45.5397 -93.4319 286° West 445 512 38,000  Level Minneapolis Center
Fri 02:01:52 PM 45.5708 -93.6006 285° West 445 512 38,000  Level Minneapolis Center
Fri 02:02:53 PM 45.6092 -93.8058 285° West 448 516 38,000  Level Minneapolis Center
Fri 02:03:55 PM 45.6408 -93.9758 285° West 448 516 38,000  Level Minneapolis Center
Fri 02:04:57 PM 45.6731 -94.1486 285° West 450 518 38,000  Level Minneapolis Center
Fri 02:05:59 PM 45.7039 -94.3200 285° West 450 518 38,000  Level Minneapolis Center
Fri 02:07:01 PM 45.7347 -94.4928 284° West 451 519 38,000  Level Minneapolis Center
Fri 02:08:03 PM 45.7656 -94.6653 284° West 450 518 38,000  Level Minneapolis Center
Fri 02:09:04 PM 45.8022 -94.8725 284° West 450 518 38,000  Level Minneapolis Center
Fri 02:10:06 PM 45.8319 -95.0439 284° West 447 514 38,000  Level Minneapolis Center
Fri 02:11:08 PM 45.8597 -95.2067 284° West 448 516 38,000  Level Minneapolis Center
Fri 02:12:10 PM 45.8900 -95.3794 284° West 449 517 38,000  Level Minneapolis Center
Fri 02:13:12 PM 45.9244 -95.5869 283° West 448 516 38,000  Level Minneapolis Center
Fri 02:14:13 PM 45.9531 -95.7589 284° West 446 513 38,000  Level Minneapolis Center
Fri 02:15:15 PM 45.9831 -95.9333 284° West 452 520 38,000  Level Minneapolis Center
Fri 02:16:17 PM 46.0114 -96.1061 283° West 448 516 38,000  Level Minneapolis Center
Fri 02:17:20 PM 46.0392 -96.2817 283° West 451 519 38,000  Level Minneapolis Center
Fri 02:18:22 PM 46.0683 -96.4550 284° West 450 518 38,000  Level Minneapolis Center
Fri 02:19:23 PM 46.1019 -96.6672 283° West 454 522 38,000  Level Minneapolis Center
Fri 02:20:25 PM 46.1289 -96.8444 282° West 455 524 38,000 -48 Level Minneapolis Center
Fri 02:21:27 PM 46.1597 -97.0342 283° West 463 533 37,900 -48 Descending Minneapolis Center
Fri 02:22:29 PM 46.1878 -97.2150 283° West 464 534 37,900  Level Minneapolis Center
Fri 02:23:31 PM 46.2153 -97.3961 282° West 463 533 37,900  Level Minneapolis Center
Fri 02:24:33 PM 46.2419 -97.5747 282° West 458 527 37,900  Level Minneapolis Center
Fri 02:25:34 PM 46.2681 -97.7544 282° West 457 526 37,900  Level Minneapolis Center
Fri 02:26:36 PM 46.2953 -97.9333 282° West 456 525 37,900  Level Minneapolis Center
Fri 02:27:38 PM 46.3214 -98.1128 282° West 457 526 37,900  Level Minneapolis Center
Fri 02:28:40 PM 46.3533 -98.3333 282° West 463 533 37,900  Level Minneapolis Center
Fri 02:29:42 PM 46.3789 -98.5136 282° West 461 531 37,900  Level Minneapolis Center
Fri 02:30:43 PM 46.4039 -98.6942 281° West 459 528 37,900  Level Minneapolis Center
Fri 02:31:45 PM 46.4286 -98.8736 281° West 457 526 37,900  Level Minneapolis Center
Fri 02:32:47 PM 46.4522 -99.0536 281° West 455 524 37,900  Level Minneapolis Center
Fri 02:33:49 PM 46.4778 -99.2347 282° West 457 526 37,900 44 Level Minneapolis Center
Fri 02:35:03 PM 46.5069 -99.4647 281° West 458 527 38,000 44 Climbing Minneapolis Center
Fri 02:36:05 PM 46.5306 -99.6453 281° West 459 528 38,000  Level Minneapolis Center
Fri 02:37:08 PM 46.5594 -99.8653 281° West 460 529 38,000 -48 Level Minneapolis Center
Fri 02:38:10 PM 46.5803 -100.0344 280° West 455 524 37,900  Descending Minneapolis Center
Fri 02:39:12 PM 46.6047 -100.2269 281° West 458 527 38,000 49 Climbing Minneapolis Center
Fri 02:40:13 PM 46.6264 -100.4078 280° West 457 526 38,000  Level Minneapolis Center
Fri 02:41:15 PM 46.6486 -100.5886 280° West 457 526 38,000  Level Minneapolis Center
Fri 02:42:17 PM 46.6703 -100.7683 280° West 454 522 38,000  Level Minneapolis Center
Fri 02:43:19 PM 46.6961 -100.9861 280° West 456 525 38,000  Level Minneapolis Center
Fri 02:44:21 PM 46.7172 -101.1661 280° West 454 522 38,000  Level Minneapolis Center
Fri 02:45:23 PM 46.7375 -101.3475 279° West 454 522 38,000  Level Minneapolis Center
Fri 02:46:25 PM 46.7558 -101.5314 278° West 458 527 38,000 -48 Level Minneapolis Center
Fri 02:47:27 PM 46.7778 -101.7186 280° West 450 518 37,900 -48 Descending Minneapolis Center
Fri 02:48:29 PM 46.7989 -101.8986 280° West 450 518 37,900  Level Minneapolis Center
Fri 02:49:31 PM 46.8200 -102.0769 280° West 449 517 37,900  Level Minneapolis Center
Fri 02:50:33 PM 46.8383 -102.2589 278° West 450 518 37,900  Level Minneapolis Center
Fri 02:51:36 PM 46.8583 -102.4389 279° West 451 519 37,900  Level Minneapolis Center
Fri 02:52:38 PM 46.8817 -102.6550 279° West 449 517 37,900  Level Minneapolis Center
Fri 02:53:40 PM 46.9000 -102.8367 278° West 451 519 37,900  Level Minneapolis Center
Fri 02:54:42 PM 46.9167 -103.0197 278° West 452 520 37,900  Level Minneapolis Center
Fri 02:55:44 PM 46.9358 -103.1992 279° West 450 518 37,900  Level Minneapolis Center
Fri 02:56:46 PM 46.9525 -103.3792 278° West 447 514 37,900  Level Minneapolis Center
Fri 02:57:14 PM 46.9611 -103.4883 277° West 448 516 37,900  Level Salt Lake Center
Fri 02:58:15 PM 46.9778 -103.6683 278° West 447 514 37,900  Level Salt Lake Center
Fri 02:59:17 PM 46.9939 -103.8475 278° West 444 511 37,900  Level Salt Lake Center
Fri 03:00:19 PM 47.0097 -104.0258 277° West 443 510 37,900  Level Salt Lake Center
Fri 03:01:20 PM 47.0250 -104.1992 277° West 439 505 37,900  Level Salt Lake Center
Fri 03:02:22 PM 47.0403 -104.3722 277° West 432 497 37,900  Level Salt Lake Center
Fri 03:03:24 PM 47.0528 -104.5392 276° West 419 482 37,900  Level Salt Lake Center
Fri 03:04:25 PM 47.0689 -104.7133 278° West 424 488 37,900  Level Salt Lake Center
Fri 03:05:27 PM 47.0875 -104.9208 278° West 428 493 37,900  Level Salt Lake Center
Fri 03:06:29 PM 47.1000 -105.0922 276° West 425 489 37,900  Level Salt Lake Center
Fri 03:07:30 PM 47.1167 -105.2689 278° West 431 496 37,900  Level Salt Lake Center
Fri 03:08:32 PM 47.1283 -105.4400 276° West 426 490 37,900 48 Level Salt Lake Center
Fri 03:09:34 PM 47.1433 -105.6186 277° West 429 494 38,000  Climbing Salt Lake Center
Fri 03:10:36 PM 47.1556 -105.7875 276° West 428 493 37,900 -49 Descending Salt Lake Center
Fri 03:11:37 PM 47.1672 -105.9592 276° West 425 489 37,900  Level Salt Lake Center
Fri 03:12:39 PM 47.1803 -106.1331 276° West 428 493 37,900 48 Level Salt Lake Center
Fri 03:13:41 PM 47.1953 -106.3358 276° West 426 490 38,000 48 Climbing Salt Lake Center
Fri 03:14:43 PM 47.2061 -106.5011 276° West 425 489 38,000  Level Salt Lake Center
Fri 03:15:44 PM 47.2192 -106.6939 276° West 423 487 38,000  Level Salt Lake Center
Fri 03:16:46 PM 47.2303 -106.8592 276° West 425 489 38,000  Level Salt Lake Center
Fri 03:17:48 PM 47.2422 -107.0511 275° West 423 487 38,000  Level Salt Lake Center
Fri 03:18:50 PM 47.2528 -107.2139 276° West 420 483 38,000  Level Salt Lake Center
Fri 03:19:51 PM 47.2633 -107.4067 275° West 423 487 38,000  Level Salt Lake Center
Fri 03:20:53 PM 47.2742 -107.5714 276° West 423 487 38,000  Level Salt Lake Center
Fri 03:21:55 PM 47.2844 -107.7633 275° West 423 487 38,000  Level Salt Lake Center
Fri 03:22:57 PM 47.2933 -107.9275 275° West 422 486 38,000  Level Salt Lake Center
Fri 03:23:58 PM 47.3028 -108.0917 275° West 421 484 38,000 -49 Level Salt Lake Center
Fri 03:25:00 PM 47.3108 -108.2606 274° West 423 487 37,900 -48 Descending Salt Lake Center
Fri 03:26:02 PM 47.3217 -108.4669 275° West 424 488 37,900 48 Level Salt Lake Center
Fri 03:27:04 PM 47.3294 -108.6406 274° West 425 489 38,000  Climbing Salt Lake Center
Fri 03:28:06 PM 47.3389 -108.8119 275° West 422 486 37,900 -49 Descending Salt Lake Center
Fri 03:29:07 PM 47.3458 -108.9864 273° West 425 489 37,900  Level Salt Lake Center
Fri 03:30:09 PM 47.3533 -109.1589 274° West 423 487 37,900  Level Salt Lake Center
Fri 03:31:11 PM 47.3608 -109.3317 274° West 423 487 37,900  Level Salt Lake Center
Fri 03:32:13 PM 47.3681 -109.5036 274° West 422 486 37,900  Level Salt Lake Center
Fri 03:33:14 PM 47.3767 -109.7117 274° West 424 488 37,900  Level Salt Lake Center
Fri 03:34:16 PM 47.3831 -109.8833 273° West 421 484 37,900  Level Salt Lake Center
Fri 03:35:18 PM 47.3894 -110.0564 273° West 423 487 37,900  Level Salt Lake Center
Fri 03:36:19 PM 47.3956 -110.2292 273° West 422 486 37,900  Level Salt Lake Center
Fri 03:37:21 PM 47.4017 -110.4031 273° West 424 488 37,900  Level Salt Lake Center
Fri 03:38:23 PM 47.4069 -110.5764 273° West 424 488 37,900  Level Salt Lake Center
Fri 03:39:24 PM 47.4125 -110.7494 273° West 422 486 37,900  Level Salt Lake Center
Fri 03:40:26 PM 47.4183 -110.9239 273° West 424 488 37,900  Level Salt Lake Center
Fri 03:41:28 PM 47.4233 -111.1347 272° West 425 489 37,900  Level Salt Lake Center
Fri 03:42:29 PM 47.4278 -111.3125 272° West 427 491 37,900  Level Salt Lake Center
Fri 03:43:31 PM 47.4322 -111.4911 272° West 429 494 37,900  Level Salt Lake Center
Fri 03:44:32 PM 47.4358 -111.6672 272° West 427 491 37,900  Level Salt Lake Center
Fri 03:45:34 PM 47.4400 -111.8450 272° West 429 494 37,900  Level Salt Lake Center
Fri 03:46:35 PM 47.4436 -112.0203 272° West 429 494 37,900  Level Salt Lake Center
Fri 03:47:37 PM 47.4472 -112.1967 272° West 429 494 37,900  Level Salt Lake Center
Fri 03:48:38 PM 47.4500 -112.3733 271° West 431 496 37,900  Level Salt Lake Center
Fri 03:49:40 PM 47.4511 -112.5492 271° West 429 494 37,900  Level Salt Lake Center
Fri 03:50:41 PM 47.4542 -112.7269 272° West 433 498 37,900  Level Salt Lake Center
Fri 03:51:43 PM 47.4569 -112.9381 271° West 432 497 37,900  Level Salt Lake Center
Fri 03:52:45 PM 47.4594 -113.1158 271° West 434 499 37,900  Level Salt Lake Center
Fri 03:53:46 PM 47.4608 -113.2933 271° West 432 497 37,900  Level Salt Lake Center
Fri 03:54:48 PM 47.4628 -113.4711 271° West 432 497 37,900  Level Salt Lake Center
Fri 03:55:49 PM 47.4642 -113.6492 271° West 433 498 37,900  Level Salt Lake Center
Fri 03:56:51 PM 47.4644 -113.8281 270° West 434 499 37,900  Level Salt Lake Center
Fri 03:57:52 PM 47.4650 -114.0072 270° West 437 503 37,900  Level Salt Lake Center
Fri 03:58:54 PM 47.4650 -114.1864 270° West 435 501 37,900  Level Salt Lake Center
Fri 03:59:55 PM 47.4650 -114.3658 270° West 435 501 37,900  Level Salt Lake Center
Fri 04:00:57 PM 47.4711 -114.5456 273° West 436 502 37,900  Level Salt Lake Center
Fri 04:01:41 PM 47.4853 -114.6892 278° West 438 504 37,900  Level Seattle Center
Fri 04:02:43 PM 47.5000 -114.8678 277° West 437 503 37,900  Level Seattle Center
Fri 04:03:44 PM 47.5156 -115.0481 277° West 439 505 37,900  Level Seattle Center
Fri 04:04:45 PM 47.5306 -115.2275 277° West 440 506 37,900  Level Seattle Center
Fri 04:05:46 PM 47.5444 -115.4083 277° West 441 507 37,900  Level Seattle Center
Fri 04:06:47 PM 47.5586 -115.5869 277° West 439 505 37,900  Level Seattle Center
Fri 04:07:48 PM 47.5731 -115.7883 276° West 441 507 37,900  Level Seattle Center
Fri 04:08:49 PM 47.5869 -115.9683 277° West 441 507 37,900  Level Seattle Center
Fri 04:09:50 PM 47.6000 -116.1483 276° West 442 509 37,900  Level Seattle Center
Fri 04:10:51 PM 47.6125 -116.3300 276° West 444 511 37,900  Level Seattle Center
Fri 04:11:52 PM 47.6258 -116.5119 276° West 446 513 37,900  Level Seattle Center
Fri 04:12:53 PM 47.6383 -116.6925 276° West 444 511 37,900  Level Seattle Center
Fri 04:13:54 PM 47.6536 -116.9072 276° West 442 509 37,900  Level Seattle Center
Fri 04:14:55 PM 47.6661 -117.0822 276° West 442 509 37,900  Level Seattle Center
Fri 04:15:57 PM 47.6753 -117.2600 274° West 446 513 37,900  Level Seattle Center
Fri 04:16:58 PM 47.6869 -117.4386 276° West 442 509 37,900  Level Seattle Center
Fri 04:17:59 PM 47.6972 -117.6178 275° West 439 505 37,900  Level Seattle Center
Fri 04:19:00 PM 47.7069 -117.7978 275° West 440 506 37,900  Level Seattle Center
Fri 04:20:01 PM 47.7200 -118.0133 275° West 439 505 37,900  Level Seattle Center
Fri 04:21:02 PM 47.7294 -118.1928 275° West 439 505 37,900  Level Seattle Center
Fri 04:22:03 PM 47.7392 -118.3731 275° West 440 506 37,900  Level Seattle Center
Fri 04:23:04 PM 47.7481 -118.5556 274° West 441 507 37,900  Level Seattle Center
Fri 04:24:05 PM 47.7578 -118.7361 275° West 442 509 37,900  Level Seattle Center
Fri 04:25:06 PM 47.7667 -118.9169 274° West 439 505 37,900  Level Seattle Center
Fri 04:26:07 PM 47.7747 -119.0981 274° West 440 506 37,900  Level Seattle Center
Fri 04:27:08 PM 47.7828 -119.2775 274° West 437 503 37,900 -98 Level Seattle Center
Fri 04:28:10 PM 47.7908 -119.4567 274° West 436 502 37,700 -1,268 Descending Seattle Center
Fri 04:29:11 PM 47.7989 -119.6342 274° West 433 498 35,300 -2,311 Descending Seattle Center
Fri 04:30:12 PM 47.8056 -119.8150 273° West 440 506 33,000 -2,459 Descending Seattle Center
Fri 04:31:13 PM 47.8139 -120.0281 273° West 431 496 30,300 -2,459 Descending Seattle Center
Fri 04:32:14 PM 47.8206 -120.2011 273° West 421 484 28,000 -2,262 Descending Seattle Center
Fri 04:33:15 PM 47.8272 -120.3803 273° West 433 498 25,700 -2,262 Descending Seattle Center
Fri 04:34:16 PM 47.8317 -120.5625 272° West 443 510 23,400 -2,213 Descending Seattle Center
Fri 04:35:17 PM 47.8417 -120.7431 275° West 439 505 21,200 -2,311 Descending Seattle Center
Fri 04:36:18 PM 47.8472 -120.9336 273° West 434 499 18,700 -2,115 Descending Seattle Center
Fri 04:37:19 PM 47.8511 -121.1108 272° West 433 498 16,900 -2,000 Descending Seattle Center
Fri 04:37:57 PM 47.8569 -121.2244 274° West 427 491 15,400 -2,226 Descending Seattle Center
Fri 04:38:21 PM 47.8581 -121.2806 272° West 415 478 14,600 -2,333 Descending Seattle Center
Fri 04:38:51 PM 47.8661 -121.3783 277° West 404 465 13,300 -2,066 Descending Seattle Center
Fri 04:39:22 PM 47.8703 -121.4417 276° West 397 457 12,500 -1,377 Descending Seattle Center
Fri 04:39:52 PM 47.8744 -121.5228 274° West 329 379 11,900 -1,271 Descending Seattle Center
Fri 04:40:47 PM 47.8814 -121.6350 275° West 282 325 10,700 -1,174 Descending Seattle Center
Fri 04:41:24 PM 47.8836 -121.6894 274° West 291 335 10,100 -689 Descending Seattle Center
Fri 04:41:48 PM 47.8575 -121.7414 233° Southwest 287 330 10,000 -98 Descending Seattle Center
Fri 04:42:25 PM 47.8303 -121.7789 223° Southwest 295 339 10,000 98 Level Seattle Center
Fri 04:42:49 PM 47.7933 -121.8306 223° Southwest 295 339 10,100 -590 Climbing Seattle Center
Fri 04:43:26 PM 47.7553 -121.8811 222° Southwest 300 345 9,400 -1,475 Descending Seattle Center
Fri 04:43:50 PM 47.7283 -121.9069 213° Southwest 303 349 8,600 -1,869 Descending Seattle Center
Fri 04:44:27 PM 47.6794 -121.9369 202° Southwest 308 354 7,500 -1,770 Descending Seattle Center
Fri 04:44:51 PM 47.6494 -121.9547 202° Southwest 306 352 6,800 -1,475 Descending Seattle Center
Fri 04:45:28 PM 47.6022 -121.9814 201° Southwest 299 344 6,000 -873 Descending Seattle Center
Fri 04:45:46 PM 47.5819 -121.9958 206° Southwest 286 329 6,000 -492 Level Seattle Center
Fri 04:46:29 PM 47.5378 -122.0197 200° South 248 285 5,500 -787 Descending Seattle Center
Fri 04:46:47 PM 47.5197 -122.0306 202° Southwest 221 254 5,200 -1,279 Descending Seattle Center
Fri 04:47:30 PM 47.4775 -122.0556 202° Southwest 235 270 4,200 -1,000 Descending Seattle Center
Fri 04:47:47 PM 47.4606 -122.0700 210° Southwest 229 264 4,200 -1,377 Level Seattle Center
Fri 04:48:31 PM 47.4403 -122.1303 244° Southwest 218 251 2,800 -1,612 Descending Seattle Center
Fri 04:48:54 PM 47.4300 -122.1592 242° Southwest 209 241 2,400 -984 Descending Seattle Center
Fri 04:49:32 PM 47.4244 -122.2100 261° West 209 241 1,800 -655 Descending Seattle Center
Fri 04:49:49 PM 47.4303 -122.2214 307° West 193 222 1,800 -197 Level Seattle Center
Fri 04:50:33 PM 47.4581 -122.2436 332° Northwest 145 167 1,600 -393 Descending Seattle Center
Fri 04:50:50 PM 47.4667 -122.2503 332° Northwest 111 128 1,400 -689 Descending Seattle Center
Fri 04:51:34 PM 47.4853 -122.2658 331° Northwest 116 133 900 -689 Descending Seattle Center
Fri 04:51:51 PM 47.4922 -122.2722 328° Northwest 99 114 700 -689 Descending Seattle Center
Fri 04:52:35 PM 47.5133 -122.2892 332° Northwest 111 128 200 -217 Descending Seattle Center
Fri 04:54:37 PM 47.5281 -122.2947 346° North 57 66 100 -49 Descending Seattle Center

Login

Don't have an account? Register now (free) for customized features, flight alerts, and more!